METAR Data
IDs: Format: Raw Decoded Include TAF

Data at: 1350 UTC 14 Dec 2019

PFKT 141256Z AUTO 13005KT 9SM -SN BKN036 BKN055 OVC070 M04/M06 A2949 RMK AO2 SNE12B29 SLP987 P0000 T10391061 FZRANO
PFKT 141156Z AUTO 10007KT 9SM -SN OVC033 M04/M07 A2950 RMK AO2 SLP991 P0000 60000 T10441067 11039 21072 52008 FZRANO
PFKT 141056Z AUTO 09014KT 9SM -SN OVC036 M04/M06 A2949 RMK AO2 SNB51 SLP988 P0000 T10391061 FZRANO
PFKT 141030Z AUTO 09011KT 10SM SCT027 OVC038 M04/M07 A2949 RMK AO2 FZRANO
PFKT 140956Z AUTO 10011KT 10SM OVC027 M04/M06 A2949 RMK AO2 SLP986 T10441061 FZRANO
PFKT 140856Z AUTO 10010KT 10SM OVC025 M04/M07 A2948 RMK AO2 SLP983 60000 T10441067 410441128 53012 FZRANO
PFKT 140756Z AUTO 09009KT 10SM OVC023 M04/M07 A2946 RMK AO2 SLP977 T10441067 FZRANO
PFKT 140656Z AUTO 11008KT 10SM OVC023 M06/M08 A2945 RMK AO2 SNE05 SLP975 P0000 T10611083 FZRANO
PFKT 140605Z AUTO 09010KT 9SM OVC028 M07/M08 A2944 RMK AO2 SNE05 P0000 FZRANO
PFKT 140556Z AUTO 11008KT 9SM -SN OVC030 M07/M09 A2944 RMK AO2 SLP971 P0000 60000 T10721089 11061 21100 51015 FZRANO
PFKT 140456Z AUTO 09010KT 9SM -SN OVC034 M06/M08 A2942 RMK AO2 SLP965 P0000 T10611078 FZRANO
PFKT 140443Z AUTO 09011KT 9SM -SN FEW024 BKN034 OVC050 M07/M08 A2942 RMK AO2 P0000 FZRANO
PFKT 140413Z AUTO 09009KT 3SM -SN BR BKN021 BKN027 OVC031 M08/M10 A2942 RMK AO2 P0000 FZRANO
PFKT 140356Z AUTO 09009KT 4SM -SN BR FEW026 OVC033 M09/M11 A2942 RMK AO2 SNB10 SLP963 P0000 T10891106 FZRANO
PFKT 140256Z AUTO 10011KT 10SM OVC037 M08/M11 A2940 RMK AO2 SLP956 T10831106 53016 FZRANO
PFKT 140156Z AUTO 12009KT 10SM OVC039 M08/M11 A2938 RMK AO2 SLP949 T10831106 FZRANO
PFKT 140056Z AUTO 08014KT 10SM OVC035 M08/M10 A2935 RMK AO2 SLP940 T10831100 FZRANO
PFKT 132356Z AUTO 11011KT 10SM OVC035 M10/M12 A2935 RMK AO2 SLP940 T11001117 11089 21122 50008 FZRANO
PFKT 132156Z AUTO 13005KT 10SM OVC037 M09/M11 A2934 RMK AO2 SLP936 T10891111 FZRANO
PFKT 132056Z AUTO 12008KT 10SM OVC037 M11/M13 A2933 RMK AO2 SLP932 T11111133 51008 FZRANO
PFKT 131956Z AUTO 09012KT 10SM CLR M12/M13 A2933 RMK AO2 SLP931 T11171133 FZRANO
PFKT 131856Z AUTO 11012KT 10SM CLR M11/M13 A2931 RMK AO2 SLP926 T11111128 FZRANO
PFKT 131756Z AUTO 09011KT 10SM CLR M09/M12 A2930 RMK AO2 SLP924 T10941117 11078 21128 55000 FZRANO
PFKT 131356Z AUTO 10011KT 10SM CLR M11/M13 A2931 RMK AO2 SLP925 T11111128 FZRANO
PFKT 131256Z AUTO 08008KT 10SM CLR M09/M11 A2932 RMK AO2 SLP931 T10891106 FZRANO
PFKT 131156Z AUTO 08006KT 10SM CLR M08/M09 A2932 RMK AO2 SLP930 T10781094 11067 21094 58016 FZRANO
PFKT 131056Z AUTO 09007KT 10SM CLR M07/M09 A2934 RMK AO2 SLP937 T10671089 FZRANO
PFKT 130956Z AUTO 06006KT 10SM CLR M08/M10 A2935 RMK AO2 SLP941 T10831100 FZRANO
PFKT 130856Z AUTO 11010KT 10SM CLR M08/M11 A2937 RMK AO2 SLP946 T10831106 400111100 56006 FZRANO
PFKT 130756Z AUTO 07007KT 10SM CLR M09/M11 A2938 RMK AO2 SLP949 T10891106 FZRANO
PFKT 130656Z AUTO 10008KT 10SM CLR M09/M11 A2938 RMK AO2 SLP950 T10891106 FZRANO
PFKT 130556Z AUTO 10007KT 10SM CLR M09/M11 A2939 RMK AO2 SLP953 T10891111 11078 21100 58005 FZRANO
PFKT 130456Z AUTO 10008KT 10SM CLR M09/M12 A2940 RMK AO2 SLP955 T10941117 FZRANO
PFKT 130356Z AUTO 10012KT 10SM CLR M09/M11 A2941 RMK AO2 SLP960 T10941111 FZRANO
PFKT 130256Z AUTO 09008KT 10SM CLR M09/M11 A2940 RMK AO2 SLP958 T10891111 58007 FZRANO
PFKT 130156Z AUTO 10010KT 10SM CLR M09/M11 A2942 RMK AO2 SLP962 T10891111 FZRANO